METAR AND TAF INFORMATION
METAR FOR ZWWW
ADDS - METARS form results

(2215 UTC 16 January 2019)
Data provider http://aviationweather.gov/metar/data/
 
METAR text: ZWWW 162200Z VRB01MPS 1800 -SN BR BKN026 M10/M12 Q1027 NOSIG
Conditions at: ZWWW (URUM-QI/DIWOPU , CN) observed 2200 UTC 16 January 2019
Temperature: -10.0°C (14°F)
Dewpoint: -12.0°C (10°F) [RH = 85%]
Pressure (altimeter): 30.32 inches Hg (1027.0 mb)
Winds: variable direction winds at 2 MPH (2 knots; 1.0 m/s)
Visibility: 1.12 miles (1.80 km)
Ceiling: 2600 feet AGL
Clouds: broken clouds at 2600 feet AGL
Weather: -SN BR  (light snow, mist)

METAR text: ZWWW 162130Z 36001MPS 1800 -SN BR BKN030 M10/M12 Q1027 NOSIG
Conditions at: ZWWW (URUM-QI/DIWOPU , CN) observed 2130 UTC 16 January 2019
Temperature: -10.0°C (14°F)
Dewpoint: -12.0°C (10°F) [RH = 85%]
Pressure (altimeter): 30.32 inches Hg (1027.0 mb)
Winds: from the N (360 degrees) at 2 MPH (2 knots; 1.0 m/s)
Visibility: 1.12 miles (1.80 km)
Ceiling: 3000 feet AGL
Clouds: broken clouds at 3000 feet AGL
Weather: -SN BR  (light snow, mist)

Forecast for: ZWWW (URUM-QI/DIWOPU , CN)
Text: TAF ZWWW 162107Z 1700/1724 33002MPS 1400 -SN BR BKN010 TXM10/09Z TNM14/23Z
Forecast period: 0000 to 0500 UTC 17 January 2019
Forecast type: FROM: standard forecast or significant change
Winds: from the NNW (330 degrees) at 5 MPH (4 knots; 2.1 m/s)
Visibility: 0.87 miles (1.40 km)
Ceiling: 1000 feet AGL
Clouds: broken clouds at 1000 feet AGL
Weather: -SN BR  (light snow, mist)
Text: BECMG 1705/1706 2000 BR NSC
Forecast period: 0500 to 1200 UTC 17 January 2019
Forecast type: BECOMING: Conditions expected to become as follows by 0600 UTC 17 January 2019
Winds: from the NNW (330 degrees) at 5 MPH (4 knots; 2.1 m/s)
Visibility: 1.24 miles (2.00 km)
Ceiling: unknown
Clouds: missing
Weather: BR  (mist)
Text: BECMG 1712/1713 18002MPS
Forecast period: 1200 UTC 17 January 2019 to 0000 UTC 18 January 2019
Forecast type: BECOMING: Conditions expected to become as follows by 1300 UTC 17 January 2019
Winds: from the S (180 degrees) at 5 MPH (4 knots; 2.1 m/s)
Visibility: 1.24 miles (2.00 km)
Ceiling: unknown
Clouds: missing
Weather: BR  (mist)

 AIRPORT MAP

 RUNWAY INFORMATION
Runway 07 Runway length 11811 ft Runway width 148 ft
Runway elevation 2123 ft Runway displaced threshold 0 ft Runway heading 74
Runway 25 Runway length 11811 ft Runway width 148 ft
Runway elevation 2126 ft Runway displaced threshold 0 ft Runway heading 254

 AIRPORT FREQUENCIES
Type ATIS Name ATIS Frequency 126.7 MHZ
Type GND Name GND Frequency 121.65 MHZ
Type TWR Name TWR Frequency 118.1 MHZ

 AIRPORT NEAR NAVIGATION AIDS
Type NDB Name Fukang Frequency 369 KHZ
Type VOR-DME Name Fukang Frequency 116300 KHZ
Type VOR-DME Name Urumqi Frequency 115700 KHZ



Powered by Virtual Airlines Manager [v2.6.2]